Time;durP1;ratioP1;P1;durP2;ratioP2;P2;SDS_P1;SDS_P2;PMS_P1;PMS_P2;Temp;Humidity;BMP_temperature;BMP_pressure;BME280_temperature;BME280_humidity;BME280_pressure;Samples;Min_cycle;Max_cycle;Signal;HPM_P1;HPM_P2
2023/03/22 00:02:25;;;;;;;6.77;5.13;;;10.40;99.90;;;;;;7389839;19;20327;-80
2023/03/22 00:04:51;;;;;;;5.88;5.32;;;10.40;99.90;;;;;;7396227;19;20344;-77
2023/03/22 00:07:17;;;;;;;7.07;5.75;;;10.40;99.90;;;;;;7396258;19;20404;-78
2023/03/22 00:09:42;;;;;;;5.50;4.97;;;10.40;99.90;;;;;;7392886;19;21142;-77
2023/03/22 00:12:08;;;;;;;5.97;5.47;;;10.30;99.90;;;;;;7391847;19;20349;-78
2023/03/22 00:14:34;;;;;;;5.33;4.83;;;10.30;99.90;;;;;;7394828;19;21030;-78
2023/03/22 00:17:00;;;;;;;5.63;5.05;;;10.30;99.90;;;;;;7392660;19;20317;-78
2023/03/22 00:19:27;;;;;;;6.03;5.43;;;10.30;99.90;;;;;;7395303;19;20316;-76
2023/03/22 00:21:54;;;;;;;5.95;5.35;;;10.30;99.90;;;;;;7392227;19;20338;-79
2023/03/22 00:24:20;;;;;;;5.20;4.70;;;10.20;99.90;;;;;;7394789;19;20388;-79
2023/03/22 00:26:46;;;;;;;5.10;4.53;;;10.30;99.90;;;;;;7396052;19;20367;-80
2023/03/22 00:29:12;;;;;;;6.05;5.40;;;10.30;99.90;;;;;;7395883;19;20333;-78
2023/03/22 00:31:40;;;;;;;5.30;4.78;;;10.30;99.90;;;;;;7392306;19;20804;-78
2023/03/22 00:34:06;;;;;;;6.57;5.45;;;10.30;99.90;;;;;;7394143;19;20355;-78
2023/03/22 00:36:31;;;;;;;5.93;5.33;;;10.20;99.90;;;;;;7395416;19;20359;-77
2023/03/22 00:38:57;;;;;;;5.43;4.83;;;10.20;99.90;;;;;;7394128;19;20359;-79
2023/03/22 00:41:22;;;;;;;5.95;4.90;;;10.20;99.90;;;;;;7394067;19;20877;-77
2023/03/22 00:43:48;;;;;;;8.43;5.40;;;10.30;99.90;;;;;;7393388;19;20345;-78
2023/03/22 00:46:14;;;;;;;5.90;5.32;;;10.30;99.90;;;;;;7395558;19;20360;-76
2023/03/22 00:48:40;;;;;;;6.70;4.90;;;10.30;99.90;;;;;;7394019;19;20341;-79
2023/03/22 00:51:06;;;;;;;5.40;4.20;;;10.30;99.90;;;;;;7390040;19;20940;-78
2023/03/22 00:53:32;;;;;;;4.30;3.90;;;10.20;99.90;;;;;;7388053;19;20418;-75
2023/03/22 00:55:58;;;;;;;6.50;4.80;;;10.30;99.90;;;;;;7394695;19;20805;-78
2023/03/22 00:58:24;;;;;;;8.27;5.93;;;10.20;99.90;;;;;;7392884;19;20861;-77
2023/03/22 01:00:50;;;;;;;5.97;4.85;;;10.20;99.90;;;;;;7389401;19;20329;-78
2023/03/22 01:03:16;;;;;;;7.77;4.37;;;10.20;99.90;;;;;;7390410;19;20313;-78
2023/03/22 01:05:44;;;;;;;5.35;4.72;;;10.20;99.90;;;;;;7394568;19;20328;-77
2023/03/22 01:08:09;;;;;;;5.50;4.07;;;10.20;99.90;;;;;;7393955;19;20348;-81
2023/03/22 01:10:36;;;;;;;5.32;4.80;;;10.20;99.90;;;;;;7390044;19;20385;-77
2023/03/22 01:13:02;;;;;;;5.53;4.73;;;10.20;99.90;;;;;;7389611;19;20341;-80
2023/03/22 01:15:29;;;;;;;4.25;3.85;;;10.20;99.90;;;;;;7394325;19;20349;-78
2023/03/22 01:17:55;;;;;;;4.75;4.13;;;10.20;99.90;;;;;;7394746;19;20320;-77
2023/03/22 01:20:21;;;;;;;4.87;3.93;;;10.20;99.90;;;;;;7398230;19;20360;-78
2023/03/22 01:22:46;;;;;;;4.72;3.90;;;10.20;99.90;;;;;;7399398;19;21012;-79
2023/03/22 01:25:13;;;;;;;4.20;3.77;;;10.20;99.90;;;;;;7401293;19;21075;-79
2023/03/22 01:27:39;;;;;;;4.45;4.05;;;10.20;99.90;;;;;;7400928;19;20313;-79
2023/03/22 01:30:06;;;;;;;4.78;4.20;;;10.20;99.90;;;;;;7400538;19;20353;-79
2023/03/22 01:32:32;;;;;;;5.40;4.17;;;10.20;99.90;;;;;;7399201;19;20332;-79
2023/03/22 01:34:57;;;;;;;4.90;4.13;;;10.20;99.90;;;;;;7401037;19;20312;-78
2023/03/22 01:37:26;;;;;;;4.75;4.35;;;10.10;99.90;;;;;;7399516;19;20345;-78
2023/03/22 01:39:53;;;;;;;5.40;4.55;;;10.10;99.90;;;;;;7399038;19;20345;-77
2023/03/22 01:42:21;;;;;;;4.65;4.13;;;10.10;99.90;;;;;;7397847;19;20340;-77
2023/03/22 01:45:11;;;;;;;4.50;4.10;;;10.10;99.90;;;;;;7401074;19;20355;-77
2023/03/22 01:47:37;;;;;;;6.30;4.22;;;10.10;99.90;;;;;;7298158;19;2004506;-77
2023/03/22 01:50:03;;;;;;;4.78;4.25;;;10.10;99.90;;;;;;7400846;19;20360;-78
2023/03/22 01:52:29;;;;;;;4.20;3.80;;;10.00;99.90;;;;;;7397848;19;20317;-80
2023/03/22 01:55:08;;;;;;;4.10;3.70;;;10.00;99.90;;;;;;7389072;19;20337;-76
2023/03/22 01:57:45;;;;;;;3.60;3.20;;;10.00;99.90;;;;;;7399812;19;20324;-76
2023/03/22 02:00:17;;;;;;;3.50;3.20;;;10.00;99.90;;;;;;7398111;19;20317;-77
2023/03/22 02:03:02;;;;;;;5.88;4.18;;;10.00;99.90;;;;;;7295500;19;2004379;-77
2023/03/22 02:05:34;;;;;;;4.07;3.67;;;9.90;99.90;;;;;;7399973;19;20924;-76
2023/03/22 02:08:00;;;;;;;6.20;3.83;;;9.80;99.90;;;;;;7398611;19;20341;-83
2023/03/22 02:10:29;;;;;;;5.60;3.50;;;9.70;99.90;;;;;;7398741;19;20336;-80
2023/03/22 02:13:18;;;;;;;3.92;3.60;;;9.70;99.90;;;;;;7400540;19;20348;-79
2023/03/22 02:16:12;;;;;;;4.45;4.00;;;9.60;99.90;;;;;;7399503;19;20357;-77
2023/03/22 02:19:10;;;;;;;3.70;3.10;;;9.50;99.90;;;;;;7298327;19;2004342;-78
2023/03/22 02:21:41;;;;;;;4.68;3.10;;;9.50;99.90;;;;;;7295790;19;2004392;-76
2023/03/22 02:24:33;;;;;;;3.78;2.95;;;9.50;99.90;;;;;;7403246;19;20370;-79
2023/03/22 02:27:31;;;;;;;3.97;3.03;;;9.50;99.90;;;;;;7300195;19;2004164;-78
2023/03/22 02:30:15;;;;;;;3.20;2.90;;;9.50;99.90;;;;;;7296456;19;2004294;-76
2023/03/22 02:33:14;;;;;;;3.70;2.60;;;9.40;99.90;;;;;;7399438;19;20345;-78
2023/03/22 02:35:42;;;;;;;3.17;2.55;;;9.30;99.90;;;;;;7298420;19;2004317;-79
2023/03/22 02:38:46;;;;;;;2.88;2.67;;;9.30;99.90;;;;;;7400053;19;20313;-79
2023/03/22 02:41:16;;;;;;;3.55;2.83;;;9.30;99.90;;;;;;7295459;19;2004632;-77
2023/03/22 02:44:02;;;;;;;3.58;3.28;;;9.10;99.90;;;;;;7400720;19;20329;-79
2023/03/22 02:46:29;;;;;;;3.07;2.83;;;9.00;99.90;;;;;;7298792;19;2004283;-77
2023/03/22 02:49:28;;;;;;;6.00;3.20;;;8.90;99.90;;;;;;7400574;19;20309;-77
2023/03/22 02:52:16;;;;;;;3.73;3.43;;;8.90;99.90;;;;;;7290492;19;2004099;-79
2023/03/22 02:54:54;;;;;;;3.20;3.00;;;8.80;99.90;;;;;;7297414;19;2004188;-79
2023/03/22 02:57:25;;;;;;;3.28;3.00;;;8.70;99.90;;;;;;7401604;19;20300;-76
2023/03/22 02:59:53;;;;;;;5.05;3.85;;;8.70;99.90;;;;;;7401864;19;20386;-82
2023/03/22 03:02:19;;;;;;;3.75;3.42;;;8.80;99.90;;;;;;7400017;19;20317;-78
2023/03/22 03:04:46;;;;;;;3.60;3.30;;;8.80;99.90;;;;;;7403200;19;20308;-80
2023/03/22 03:07:13;;;;;;;3.25;2.95;;;8.70;99.90;;;;;;7401222;19;20356;-79
2023/03/22 03:09:40;;;;;;;3.13;2.90;;;8.70;99.90;;;;;;7400765;19;20305;-77
2023/03/22 03:12:13;;;;;;;3.63;3.33;;;8.60;99.90;;;;;;7401535;19;20362;-77
2023/03/22 03:14:39;;;;;;;4.65;3.22;;;8.60;99.90;;;;;;7400828;19;20364;-79
2023/03/22 03:17:29;;;;;;;4.07;3.70;;;8.50;99.90;;;;;;7400325;19;20343;-83
2023/03/22 03:20:12;;;;;;;5.10;3.97;;;8.40;99.90;;;;;;7296867;19;2004356;-79
2023/03/22 03:23:08;;;;;;;5.03;3.83;;;8.40;99.90;;;;;;7398673;19;20440;-80
2023/03/22 03:25:42;;;;;;;3.70;3.40;;;8.40;99.90;;;;;;7298218;19;2004505;-77
2023/03/22 03:28:37;;;;;;;4.53;4.13;;;8.40;99.90;;;;;;7400484;19;20320;-77
2023/03/22 03:31:08;;;;;;;4.43;4.00;;;8.30;99.90;;;;;;7290108;19;2004525;-78
2023/03/22 03:33:35;;;;;;;7.05;3.67;;;8.20;99.90;;;;;;7397321;19;20320;-78
2023/03/22 03:36:07;;;;;;;4.37;3.97;;;8.10;99.90;;;;;;7401248;19;20353;-80
2023/03/22 03:38:34;;;;;;;3.60;3.30;;;8.10;99.90;;;;;;7402664;19;20315;-76
2023/03/22 03:41:02;;;;;;;3.30;3.05;;;8.10;99.90;;;;;;7400707;19;20543;-77
2023/03/22 03:43:28;;;;;;;4.67;3.80;;;8.10;99.90;;;;;;7401236;19;20327;-78
2023/03/22 03:45:54;;;;;;;4.25;3.85;;;8.00;99.90;;;;;;7397962;19;20793;-77
2023/03/22 03:48:26;;;;;;;4.20;3.80;;;8.00;99.90;;;;;;7396973;19;20329;-77
2023/03/22 03:50:51;;;;;;;3.80;3.50;;;8.00;99.90;;;;;;7394407;19;20367;-79
2023/03/22 03:53:17;;;;;;;3.58;3.28;;;7.90;99.90;;;;;;7393500;19;20317;-78
2023/03/22 03:55:43;;;;;;;4.22;3.92;;;7.90;99.90;;;;;;7393719;19;20355;-84
2023/03/22 03:58:09;;;;;;;4.27;3.87;;;7.90;99.90;;;;;;7392139;19;20341;-78
2023/03/22 04:00:35;;;;;;;5.80;4.38;;;7.90;99.90;;;;;;7388569;19;20351;-78
2023/03/22 04:03:22;;;;;;;4.13;3.80;;;7.90;99.90;;;;;;7390691;19;20325;-78
2023/03/22 04:06:10;;;;;;;3.55;3.25;;;7.80;99.90;;;;;;7286352;19;2005042;-77
2023/03/22 04:08:40;;;;;;;4.20;3.88;;;7.80;99.90;;;;;;7394785;19;20324;-78
2023/03/22 04:11:06;;;;;;;4.63;4.18;;;7.80;99.90;;;;;;7393492;19;20312;-79
2023/03/22 04:13:32;;;;;;;5.80;4.60;;;7.70;99.90;;;;;;7389714;19;20337;-76
2023/03/22 04:16:01;;;;;;;5.00;4.50;;;7.60;99.90;;;;;;7396825;19;20356;-78
2023/03/22 04:18:30;;;;;;;5.67;5.03;;;7.60;99.90;;;;;;7395986;19;20325;-80
2023/03/22 04:20:59;;;;;;;5.20;4.70;;;7.60;99.90;;;;;;7390752;19;20328;-78
2023/03/22 04:23:28;;;;;;;5.43;4.93;;;7.60;99.90;;;;;;7393382;19;20388;-78
2023/03/22 04:25:58;;;;;;;7.13;4.88;;;7.70;99.90;;;;;;7395966;19;20326;-81
2023/03/22 04:28:32;;;;;;;6.40;4.85;;;7.70;99.90;;;;;;7293458;19;2004213;-78
2023/03/22 04:30:58;;;;;;;5.70;5.20;;;7.70;99.90;;;;;;7392611;19;21022;-77
2023/03/22 04:33:48;;;;;;;6.13;5.35;;;7.70;99.90;;;;;;7392638;19;20356;-79
2023/03/22 04:36:35;;;;;;;8.15;5.28;;;7.70;99.90;;;;;;7291107;19;2004545;-76
2023/03/22 04:39:12;;;;;;;4.93;4.43;;;7.80;99.90;;;;;;7396725;19;20333;-76
2023/03/22 04:41:39;;;;;;;5.55;5.00;;;7.80;99.90;;;;;;7393213;19;20321;-78
2023/03/22 04:44:05;;;;;;;5.60;5.10;;;7.80;99.90;;;;;;7395750;19;20351;-76
2023/03/22 04:46:34;;;;;;;5.63;5.10;;;7.80;99.90;;;;;;7396716;19;20313;-77
2023/03/22 04:49:04;;;;;;;6.00;3.97;;;7.80;99.90;;;;;;7393945;19;20313;-76
2023/03/22 04:51:33;;;;;;;4.78;4.35;;;7.80;99.90;;;;;;7391818;19;20404;-81
2023/03/22 04:54:22;;;;;;;5.50;4.72;;;7.80;99.90;;;;;;7397972;19;20316;-80
2023/03/22 04:56:48;;;;;;;5.32;4.82;;;7.80;99.90;;;;;;7400926;19;20406;-76
2023/03/22 04:59:19;;;;;;;5.03;4.50;;;7.80;99.90;;;;;;7402930;19;20332;-77
2023/03/22 05:01:47;;;;;;;5.25;4.65;;;7.70;99.90;;;;;;7396819;19;20362;-77
2023/03/22 05:04:17;;;;;;;4.40;3.90;;;7.80;99.90;;;;;;7399822;19;20324;-78
2023/03/22 05:06:43;;;;;;;4.68;4.28;;;7.80;99.90;;;;;;7400024;19;20332;-77
2023/03/22 05:09:16;;;;;;;5.35;4.82;;;7.80;99.90;;;;;;7398853;19;20324;-80
2023/03/22 05:11:42;;;;;;;5.85;4.95;;;7.80;99.90;;;;;;7397125;19;20373;-79
2023/03/22 05:14:37;;;;;;;5.70;5.13;;;7.80;99.90;;;;;;7298054;19;2004422;-80
2023/03/22 05:17:03;;;;;;;5.97;5.18;;;7.80;99.90;;;;;;7400050;19;20325;-81
2023/03/22 05:19:34;;;;;;;6.50;4.70;;;7.80;99.90;;;;;;7398085;19;20344;-80
2023/03/22 05:22:00;;;;;;;6.60;4.95;;;7.80;99.90;;;;;;7398479;19;20324;-77
2023/03/22 05:24:39;;;;;;;5.30;4.63;;;7.80;99.90;;;;;;7399635;19;20395;-80
2023/03/22 05:27:09;;;;;;;4.82;4.40;;;7.80;99.90;;;;;;7399196;19;20316;-79
2023/03/22 05:29:35;;;;;;;4.97;4.47;;;7.90;99.90;;;;;;7400100;19;20316;-76
2023/03/22 05:32:08;;;;;;;4.97;4.43;;;7.90;99.90;;;;;;7400186;19;22220;-80
2023/03/22 05:34:34;;;;;;;5.63;4.68;;;7.90;99.90;;;;;;7399092;19;20317;-79
2023/03/22 05:37:07;;;;;;;4.25;3.90;;;7.90;99.90;;;;;;7399849;19;20400;-80
2023/03/22 05:39:46;;;;;;;5.55;4.55;;;7.90;99.90;;;;;;7398590;19;20320;-79
2023/03/22 05:42:11;;;;;;;5.40;4.60;;;7.90;99.90;;;;;;7393949;19;20343;-77
2023/03/22 05:44:37;;;;;;;5.30;4.80;;;7.90;99.90;;;;;;7399163;19;20321;-78
2023/03/22 05:47:07;;;;;;;5.83;4.00;;;7.90;99.90;;;;;;7399172;19;20323;-85
2023/03/22 05:49:36;;;;;;;6.10;5.15;;;8.00;99.90;;;;;;7398254;19;20328;-80
2023/03/22 05:52:04;;;;;;;4.87;4.40;;;8.00;99.90;;;;;;7397473;19;20344;-77
2023/03/22 05:54:45;;;;;;;5.30;4.80;;;8.00;99.90;;;;;;7398643;19;20316;-80
2023/03/22 05:57:10;;;;;;;4.70;4.30;;;8.00;99.90;;;;;;7396920;19;20757;-78
2023/03/22 05:59:36;;;;;;;5.60;4.93;;;8.10;99.90;;;;;;7398183;19;20338;-76
2023/03/22 06:02:02;;;;;;;6.13;4.78;;;8.10;99.90;;;;;;7394588;19;20994;-77
2023/03/22 06:04:30;;;;;;;5.78;4.90;;;8.10;99.90;;;;;;7396950;19;20337;-78
2023/03/22 06:07:09;;;;;;;6.20;4.60;;;8.20;99.90;;;;;;7396044;19;20364;-82
2023/03/22 06:09:45;;;;;;;6.13;4.88;;;8.20;99.90;;;;;;7396407;19;20324;-81
2023/03/22 06:12:15;;;;;;;6.32;4.78;;;8.30;99.90;;;;;;7392291;19;20361;-82
2023/03/22 06:14:44;;;;;;;6.22;4.82;;;8.30;99.90;;;;;;7397001;19;20320;-76
2023/03/22 06:17:21;;;;;;;5.80;4.70;;;8.40;99.90;;;;;;7396236;19;20315;-77
2023/03/22 06:19:47;;;;;;;4.93;4.50;;;8.40;99.90;;;;;;7397136;19;20324;-77
2023/03/22 06:22:14;;;;;;;5.38;4.75;;;8.50;99.90;;;;;;7395368;19;20701;-85
2023/03/22 06:24:41;;;;;;;5.75;4.43;;;8.50;99.90;;;;;;7396196;19;20388;-76
2023/03/22 06:27:09;;;;;;;5.57;4.85;;;8.60;99.90;;;;;;7397275;19;20349;-84
2023/03/22 06:29:36;;;;;;;4.75;3.75;;;8.60;99.90;;;;;;7394994;19;20312;-81
2023/03/22 06:32:05;;;;;;;5.18;4.40;;;8.70;99.90;;;;;;7392801;19;21123;-81
2023/03/22 06:34:31;;;;;;;5.13;4.43;;;8.80;99.90;;;;;;7397285;19;20324;-80
2023/03/22 06:36:57;;;;;;;5.28;4.35;;;8.80;99.90;;;;;;7396755;19;20336;-79
2023/03/22 06:39:30;;;;;;;6.63;4.37;;;8.90;99.90;;;;;;7396335;19;20317;-83
2023/03/22 06:41:56;;;;;;;5.50;4.45;;;9.00;99.90;;;;;;7393180;19;20355;-83
2023/03/22 06:44:22;;;;;;;4.63;3.75;;;9.00;99.90;;;;;;7395821;19;20809;-79
2023/03/22 06:46:50;;;;;;;5.30;4.60;;;9.10;99.90;;;;;;7396544;19;20301;-75
2023/03/22 06:49:51;;;;;;;5.28;4.20;;;9.10;99.90;;;;;;7290340;19;2004170;-83
2023/03/22 06:52:22;;;;;;;4.50;4.10;;;9.10;99.90;;;;;;7388214;19;20364;-79
2023/03/22 06:54:48;;;;;;;5.13;4.45;;;9.20;99.90;;;;;;7394014;19;20316;-76
2023/03/22 06:57:14;;;;;;;5.80;4.00;;;9.30;99.90;;;;;;7394256;19;20328;-77
2023/03/22 06:59:40;;;;;;;4.78;4.22;;;9.30;99.90;;;;;;7393614;19;21031;-77
2023/03/22 07:02:05;;;;;;;6.07;4.30;;;9.30;99.90;;;;;;7388706;19;20411;-79
2023/03/22 07:04:32;;;;;;;5.10;4.07;;;9.30;99.90;;;;;;7394098;19;20388;-77
2023/03/22 07:06:58;;;;;;;4.63;4.22;;;9.40;99.90;;;;;;7395251;19;20657;-82
2023/03/22 07:09:26;;;;;;;5.27;4.27;;;9.50;99.90;;;;;;7395977;19;20320;-80
2023/03/22 07:11:53;;;;;;;4.70;4.10;;;9.50;99.90;;;;;;7389615;19;20329;-80
2023/03/22 07:14:20;;;;;;;6.00;4.10;;;9.60;99.90;;;;;;7391916;19;20300;-81
2023/03/22 07:16:52;;;;;;;4.38;3.97;;;9.60;99.90;;;;;;7392735;19;20313;-76
2023/03/22 07:19:19;;;;;;;6.80;3.80;;;9.60;99.90;;;;;;7398607;19;20337;-82
2023/03/22 07:21:46;;;;;;;6.68;4.75;;;9.70;99.90;;;;;;7391916;19;20348;-76
2023/03/22 07:24:12;;;;;;;4.93;4.07;;;9.70;99.90;;;;;;7394575;19;20328;-78
2023/03/22 07:26:40;;;;;;;6.43;4.68;;;9.80;99.90;;;;;;7395882;19;20316;-90
2023/03/22 07:29:21;;;;;;;6.50;4.85;;;9.90;99.90;;;;;;7402325;19;20324;-80
2023/03/22 07:31:46;;;;;;;4.60;4.20;;;10.00;99.90;;;;;;7399154;19;20444;-80
2023/03/22 07:34:20;;;;;;;4.60;3.95;;;9.90;99.90;;;;;;7402010;19;20344;-82
2023/03/22 07:37:10;;;;;;;4.40;4.00;;;9.90;99.90;;;;;;7302164;19;2004647;-82
2023/03/22 07:39:36;;;;;;;4.30;3.88;;;10.00;99.90;;;;;;7403953;19;20308;-81
2023/03/22 07:42:02;;;;;;;4.03;3.73;;;10.00;99.90;;;;;;7403065;19;20328;-83
2023/03/22 07:44:50;;;;;;;4.57;4.07;;;10.00;99.90;;;;;;7399882;19;20293;-82
2023/03/22 07:47:36;;;;;;;4.65;4.20;;;10.10;99.90;;;;;;7298607;19;2004389;-83
2023/03/22 07:50:12;;;;;;;5.97;3.92;;;10.20;99.90;;;;;;7399168;19;20336;-84
2023/03/22 07:52:40;;;;;;;5.43;3.95;;;10.30;99.90;;;;;;7395342;19;20377;-80
2023/03/22 07:55:08;;;;;;;5.82;4.93;;;10.40;99.90;;;;;;7399575;19;20699;-79
2023/03/22 07:57:34;;;;;;;6.13;4.47;;;10.40;99.90;;;;;;7398991;19;20394;-79
2023/03/22 08:00:00;;;;;;;5.22;4.10;;;10.40;99.90;;;;;;7396650;19;20315;-78
2023/03/22 08:02:44;;;;;;;7.20;5.00;;;10.50;99.90;;;;;;7396083;19;20374;-90
2023/03/22 08:05:15;;;;;;;5.93;4.60;;;10.60;99.90;;;;;;7408363;19;20309;-89
2023/03/22 08:07:42;;;;;;;4.85;4.32;;;10.70;99.90;;;;;;7407993;19;20331;-87
2023/03/22 08:10:09;;;;;;;5.60;4.30;;;10.80;99.90;;;;;;7411018;19;20336;-86
2023/03/22 08:12:35;;;;;;;4.97;4.47;;;10.90;99.90;;;;;;7408722;19;20392;-89
2023/03/22 08:15:15;;;;;;;5.07;4.13;;;10.90;99.90;;;;;;7411615;19;20347;-83
2023/03/22 08:17:41;;;;;;;7.20;4.50;;;10.90;99.90;;;;;;7408550;19;20320;-81
2023/03/22 08:20:17;;;;;;;4.60;4.18;;;11.00;99.90;;;;;;7409561;19;20353;-86
2023/03/22 08:22:47;;;;;;;4.83;4.00;;;11.20;99.90;;;;;;7410135;19;20320;-88
2023/03/22 08:25:25;;;;;;;4.78;4.32;;;11.20;99.90;;;;;;7408930;19;20316;-85
2023/03/22 08:27:53;;;;;;;7.03;4.60;;;11.40;99.90;;;;;;7407738;19;20369;-86
2023/03/22 08:30:20;;;;;;;5.63;4.38;;;11.50;99.90;;;;;;7409224;19;20329;-84
2023/03/22 08:32:46;;;;;;;5.57;4.40;;;11.60;99.90;;;;;;7409156;19;20348;-82
2023/03/22 08:35:12;;;;;;;4.90;4.40;;;11.60;99.90;;;;;;7409667;19;20304;-83
2023/03/22 08:37:38;;;;;;;4.95;4.00;;;11.70;99.90;;;;;;7407250;19;20365;-82
2023/03/22 08:40:08;;;;;;;6.33;4.40;;;11.70;99.90;;;;;;7402011;19;20357;-77
2023/03/22 08:42:44;;;;;;;5.72;4.30;;;11.80;99.90;;;;;;7403745;19;20396;-80
2023/03/22 08:45:09;;;;;;;5.60;4.65;;;12.00;99.90;;;;;;7402139;19;20317;-78
2023/03/22 08:47:41;;;;;;;4.68;4.28;;;12.20;99.90;;;;;;7404167;19;20342;-79
2023/03/22 08:50:08;;;;;;;5.10;4.32;;;12.30;99.90;;;;;;7401927;19;20418;-80
2023/03/22 08:52:55;;;;;;;5.30;4.35;;;12.40;99.90;;;;;;7402562;19;20364;-79
2023/03/22 08:55:25;;;;;;;7.47;5.90;;;12.50;99.90;;;;;;7403916;19;20345;-78
2023/03/22 08:58:13;;;;;;;7.38;5.00;;;12.50;99.90;;;;;;7300173;19;2004432;-79
2023/03/22 09:00:58;;;;;;;4.78;4.28;;;12.70;99.90;;;;;;7303658;19;2004443;-81
2023/03/22 09:03:32;;;;;;;6.93;4.45;;;12.70;99.90;;;;;;7397690;19;20412;-77
2023/03/22 09:05:57;;;;;;;4.57;4.13;;;12.80;99.90;;;;;;7391933;19;20745;-77
2023/03/22 09:08:26;;;;;;;4.28;3.85;;;12.90;99.90;;;;;;7389829;19;20499;-78
2023/03/22 09:11:07;;;;;;;5.70;4.13;;;13.00;99.90;;;;;;7283850;19;2004346;-79
2023/03/22 09:13:34;;;;;;;7.00;4.10;;;13.00;99.90;;;;;;7394115;19;20321;-83
2023/03/22 09:16:02;;;;;;;3.90;3.55;;;13.00;99.90;;;;;;7393552;19;20861;-79
2023/03/22 09:18:31;;;;;;;4.78;4.18;;;12.90;99.90;;;;;;7394993;19;20324;-80
2023/03/22 09:21:00;;;;;;;6.22;4.05;;;13.00;99.90;;;;;;7387964;19;20300;-77
2023/03/22 09:23:33;;;;;;;5.35;4.35;;;13.20;99.90;;;;;;7387796;19;21012;-77
2023/03/22 09:26:00;;;;;;;4.68;4.05;;;13.20;99.90;;;;;;7391554;19;20837;-77
2023/03/22 09:28:26;;;;;;;6.50;4.18;;;13.20;99.90;;;;;;7392732;19;20969;-85
2023/03/22 09:31:05;;;;;;;4.18;3.55;;;13.40;99.90;;;;;;7390619;19;20312;-78
2023/03/22 09:33:31;;;;;;;7.55;3.95;;;13.40;99.90;;;;;;7288516;19;2004387;-77
2023/03/22 09:35:57;;;;;;;4.82;3.70;;;13.50;99.90;;;;;;7393410;19;20323;-80
2023/03/22 09:38:23;;;;;;;4.97;3.92;;;13.60;99.90;;;;;;7392205;19;20312;-79
2023/03/22 09:41:01;;;;;;;5.43;4.10;;;13.60;99.90;;;;;;7398357;19;20308;-81
2023/03/22 09:43:38;;;;;;;5.05;3.90;;;13.80;99.90;;;;;;7289875;19;2004261;-82
2023/03/22 09:46:12;;;;;;;4.47;3.72;;;13.90;99.90;;;;;;7396043;19;20441;-79
2023/03/22 09:48:38;;;;;;;4.05;3.60;;;13.90;99.90;;;;;;7396185;19;20320;-80
2023/03/22 09:51:06;;;;;;;3.90;3.50;;;14.00;99.90;;;;;;7392625;19;20306;-81
2023/03/22 09:53:32;;;;;;;4.67;3.90;;;14.20;99.90;;;;;;7392886;19;20311;-78
2023/03/22 09:55:57;;;;;;;5.00;3.95;;;14.20;99.90;;;;;;7395774;19;20325;-79
2023/03/22 09:58:42;;;;;;;3.93;3.37;;;14.30;99.90;;;;;;7393499;19;20856;-78
2023/03/22 10:01:44;;;;;;;6.05;3.65;;;14.30;99.90;;;;;;7284208;19;2004587;-80
2023/03/22 10:04:20;;;;;;;4.32;3.42;;;14.40;99.90;;;;;;7292268;19;2004564;-78
2023/03/22 10:06:48;;;;;;;4.13;3.67;;;14.50;99.90;;;;;;7394272;19;20333;-78
2023/03/22 10:09:19;;;;;;;3.83;3.45;;;14.50;99.90;;;;;;7394334;19;20461;-77
2023/03/22 10:12:24;;;;;;;3.55;3.22;;;14.70;99.90;;;;;;7391445;19;20320;-79
2023/03/22 10:14:56;;;;;;;4.75;3.45;;;14.90;99.90;;;;;;7289920;19;2004812;-80
2023/03/22 10:17:23;;;;;;;6.32;3.70;;;15.10;99.90;;;;;;7396756;19;20912;-79
2023/03/22 10:20:08;;;;;;;5.10;4.10;;;15.20;99.90;;;;;;7390229;19;20309;-80
2023/03/22 10:22:35;;;;;;;3.95;3.55;;;15.10;99.90;;;;;;7284864;19;2004341;-80
2023/03/22 10:25:01;;;;;;;5.10;3.63;;;15.10;99.90;;;;;;7390782;19;20301;-77
2023/03/22 10:27:28;;;;;;;4.78;3.65;;;15.20;99.90;;;;;;7390453;19;20344;-80
2023/03/22 10:30:08;;;;;;;3.58;3.28;;;15.20;99.90;;;;;;7391152;19;20297;-79
2023/03/22 10:32:44;;;;;;;5.88;3.70;;;15.40;99.90;;;;;;7288838;19;2005525;-79
2023/03/22 10:35:14;;;;;;;4.25;3.30;;;15.60;99.90;;;;;;7392578;19;20321;-78
2023/03/22 10:37:39;;;;;;;4.65;3.75;;;15.40;99.90;;;;;;7391399;19;20340;-79
2023/03/22 10:40:07;;;;;;;3.75;3.38;;;15.40;99.90;;;;;;7390076;19;20393;-79
2023/03/22 10:42:35;;;;;;;3.83;3.40;;;15.60;99.90;;;;;;7391169;19;20321;-80
2023/03/22 10:45:06;;;;;;;4.90;3.25;;;15.70;99.90;;;;;;7389346;19;20333;-79
2023/03/22 10:47:39;;;;;;;4.53;3.43;;;15.70;99.90;;;;;;7392997;19;20317;-79
2023/03/22 10:50:08;;;;;;;4.30;3.55;;;15.80;99.90;;;;;;7388197;19;20341;-77
2023/03/22 10:52:38;;;;;;;4.88;3.80;;;16.00;99.90;;;;;;7388311;19;20711;-81
2023/03/22 10:55:09;;;;;;;4.82;3.17;;;16.30;99.90;;;;;;7394004;19;20411;-80
2023/03/22 10:57:38;;;;;;;5.70;3.78;;;16.60;99.90;;;;;;7393492;19;20336;-81
2023/03/22 11:00:11;;;;;;;3.20;2.90;;;16.70;99.90;;;;;;7391417;19;20364;-80
2023/03/22 11:06:09;;;;;;;3.60;3.25;;;17.30;99.90;;;;;;7180542;19;2004493;-81
2023/03/22 11:08:39;;;;;;;3.63;3.25;;;17.60;99.90;;;;;;7392576;19;20331;-81
2023/03/22 11:11:06;;;;;;;2.80;2.60;;;17.70;99.90;;;;;;7392478;19;21156;-80
2023/03/22 11:13:32;;;;;;;4.33;2.77;;;17.70;99.90;;;;;;7395986;19;20352;-80
2023/03/22 11:16:01;;;;;;;4.07;3.33;;;17.80;99.90;;;;;;7394033;19;20336;-80
2023/03/22 11:18:32;;;;;;;3.33;2.92;;;18.00;99.90;;;;;;7392327;19;21406;-81
2023/03/22 11:21:19;;;;;;;2.95;2.75;;;17.90;99.90;;;;;;7374919;19;20321;-79
2023/03/22 11:23:58;;;;;;;3.35;3.05;;;18.20;99.90;;;;;;7284531;19;2004945;-81
2023/03/22 11:26:27;;;;;;;3.43;2.20;;;18.20;99.90;;;;;;7389926;19;20922;-81
2023/03/22 11:28:53;;;;;;;5.30;3.00;;;18.10;99.90;;;;;;7387138;19;20329;-81
2023/03/22 11:31:19;;;;;;;2.77;2.50;;;17.60;99.90;;;;;;7385950;19;20329;-80
2023/03/22 11:33:57;;;;;;;2.25;2.05;;;17.50;99.90;;;;;;7387580;19;20350;-81
2023/03/22 11:36:23;;;;;;;2.60;2.40;;;17.80;99.90;;;;;;7386595;19;20320;-83
2023/03/22 11:38:55;;;;;;;2.88;2.58;;;18.00;99.90;;;;;;7388138;19;20325;-80
2023/03/22 11:41:29;;;;;;;3.95;2.63;;;17.90;99.90;;;;;;7368394;19;20331;-80
2023/03/22 11:44:01;;;;;;;3.95;2.65;;;17.50;99.90;;;;;;7389893;19;20840;-81
2023/03/22 11:46:30;;;;;;;3.40;3.05;;;17.40;99.90;;;;;;7385849;19;20328;-82
2023/03/22 11:48:57;;;;;;;3.42;2.53;;;17.30;99.90;;;;;;7392251;19;20325;-80
2023/03/22 11:51:32;;;;;;;3.42;2.40;;;17.20;99.90;;;;;;7393324;19;20327;-81
2023/03/22 11:54:30;;;;;;;2.38;2.17;;;17.20;99.90;;;;;;7383526;19;20356;-82
2023/03/22 11:57:00;;;;;;;2.47;2.22;;;17.10;99.90;;;;;;7349449;19;20372;-81
2023/03/22 11:59:33;;;;;;;2.97;2.10;;;17.00;99.90;;;;;;7365953;19;20312;-80
2023/03/22 12:02:28;;;;;;;3.08;2.22;;;17.20;99.90;;;;;;7396304;19;20356;-79
2023/03/22 12:05:13;;;;;;;2.20;2.00;;;17.80;99.90;;;;;;7293092;19;2004294;-80
2023/03/22 12:07:39;;;;;;;3.33;2.10;;;18.30;99.90;;;;;;7386613;19;20323;-81
2023/03/22 12:10:12;;;;;;;2.08;1.90;;;18.20;99.90;;;;;;7366051;19;20297;-80
2023/03/22 12:12:39;;;;;;;1.95;1.73;;;18.30;99.90;;;;;;7387616;19;20329;-79
2023/03/22 12:15:05;;;;;;;2.67;2.00;;;18.00;99.90;;;;;;7385716;19;20335;-80
2023/03/22 12:17:34;;;;;;;1.80;1.70;;;17.50;99.90;;;;;;7384249;19;20392;-78
2023/03/22 12:20:07;;;;;;;1.90;1.80;;;17.30;99.90;;;;;;7385371;19;21025;-78
2023/03/22 12:22:39;;;;;;;5.05;1.80;;;17.00;99.90;;;;;;7382206;19;20317;-79
2023/03/22 12:25:16;;;;;;;2.50;1.90;;;16.90;99.90;;;;;;7384956;19;20919;-80
2023/03/22 12:27:44;;;;;;;2.78;1.75;;;17.10;99.90;;;;;;7281865;19;2004345;-79
2023/03/22 12:30:21;;;;;;;2.40;1.73;;;16.80;99.90;;;;;;7382275;19;20356;-79
2023/03/22 12:32:51;;;;;;;3.40;1.80;;;16.80;99.90;;;;;;7274838;19;2018040;-78
2023/03/22 12:35:20;;;;;;;2.13;1.70;;;16.70;99.90;;;;;;7383571;19;20313;-78
2023/03/22 12:37:48;;;;;;;1.83;1.73;;;16.60;99.90;;;;;;7383446;19;20327;-78
2023/03/22 12:40:15;;;;;;;2.33;1.80;;;16.70;99.90;;;;;;7382831;19;20435;-79
2023/03/22 12:42:57;;;;;;;1.80;1.70;;;17.00;99.90;;;;;;7381690;19;20846;-79
2023/03/22 12:45:25;;;;;;;2.22;1.63;;;17.10;99.90;;;;;;7280436;19;2019711;-78
2023/03/22 12:47:56;;;;;;;2.35;2.15;;;17.00;99.90;;;;;;7382895;19;20362;-79
2023/03/22 12:50:24;;;;;;;2.25;2.08;;;16.80;99.90;;;;;;7382734;19;20491;-78
2023/03/22 12:52:53;;;;;;;2.70;2.50;;;16.80;99.90;;;;;;7380832;19;20865;-79
2023/03/22 12:55:28;;;;;;;2.50;2.10;;;16.60;99.90;;;;;;7382837;19;20337;-79
2023/03/22 12:57:54;;;;;;;3.53;2.38;;;16.60;99.90;;;;;;7383156;19;20345;-79
2023/03/22 13:00:57;;;;;;;2.45;1.92;;;16.50;99.90;;;;;;7380537;19;20353;-81
2023/03/22 13:03:27;;;;;;;2.25;2.05;;;16.40;99.90;;;;;;7257521;19;2004602;-79
2023/03/22 13:06:02;;;;;;;3.92;2.28;;;16.40;99.90;;;;;;7379003;19;20333;-78
2023/03/22 13:08:49;;;;;;;2.50;2.30;;;16.50;99.90;;;;;;7383474;19;20333;-78
2023/03/22 13:11:21;;;;;;;1.80;1.70;;;16.60;99.90;;;;;;7278068;19;2004481;-78
2023/03/22 13:13:47;;;;;;;2.78;2.13;;;16.80;99.90;;;;;;7382103;19;20690;-78
2023/03/22 13:16:18;;;;;;;2.67;1.80;;;16.70;99.90;;;;;;7388745;19;20428;-79